.
WxDataArchive / Data Records for 2015-05-01
2015-04-30 May 2015 2015-05-02

Data Records for Friday, 01 May 2015

Time	Temp	Chill	HIndex	Humid	Dewpt	 Wind 	HiWind	WindDir	Rain 	Barom
-----	----	-----	------	-----	-----	------	------	-------	-----	-----
00:00	49.2	49.2	49.2	55	33.7	1	5	315	0.00	29.991 
00:05	49.1	49.1	49.1	55	33.6	1	4	315	0.00	29.991 
00:10	48.8	48.8	48.8	55	33.4	1	5	292	0.00	29.991 
00:15	48.6	48.6	48.6	56	33.6	0	4	0	0.00	29.998 
00:20	48.5	48.5	48.5	56	33.5	1	4	292	0.00	29.998 
00:25	48.3	48.3	48.3	56	33.3	1	3	292	0.00	29.998 
00:30	48.3	48.3	48.3	56	33.3	1	3	292	0.00	30.003 
00:35	48.2	48.2	48.2	56	33.2	0	2	292	0.00	30.003 
00:40	48.0	48.0	48.0	57	33.5	1	3	292	0.00	30.003 
00:45	48.0	48.0	48.0	57	33.5	1	3	292	0.00	30.003 
00:50	47.9	47.9	47.9	57	33.4	1	4	315	0.00	30.003 
00:55	47.6	47.6	47.6	57	33.1	1	3	338	0.00	30.003 
01:00	47.4	47.4	47.4	57	32.9	0	4	292	0.00	30.004 
01:05	47.3	47.3	47.3	58	33.3	0	2	292	0.00	30.004 
01:10	47.1	47.1	47.1	58	33.1	0	4	292	0.00	30.004 
01:15	46.8	46.8	46.8	58	32.8	0	2	292	0.00	30.012 
01:20	46.8	46.8	46.8	59	33.2	0	2	292	0.00	30.012 
01:25	46.7	46.7	46.7	58	32.7	0	2	292	0.00	30.012 
01:30	46.7	46.7	46.7	58	32.7	0	2	292	0.00	30.008 
01:35	46.5	46.5	46.5	59	33.0	0	1	292	0.00	30.008 
01:40	46.4	46.4	46.4	59	32.9	0	1	292	0.00	30.008 
01:45	46.2	46.2	46.2	59	32.7	0	1	292	0.00	30.011 
01:50	46.1	46.1	46.1	59	32.6	0	1	292	0.00	30.011 
01:55	46.0	46.0	46.0	60	32.9	0	1	292	0.00	30.011 
02:00	45.8	45.8	45.8	60	32.7	0	1	292	0.00	30.010 
02:05	45.7	45.7	45.7	60	32.6	0	0	---	0.00	30.010 
02:10	45.5	45.5	45.5	60	32.4	0	1	292	0.00	30.010 
02:15	45.4	45.4	45.4	60	32.3	0	0	---	0.00	30.008 
02:20	45.2	45.2	45.2	61	32.6	0	0	---	0.00	30.008 
02:25	45.1	45.1	45.1	61	32.5	0	2	292	0.00	30.008 
02:30	44.9	44.9	44.9	61	32.3	0	0	---	0.00	30.005 
02:35	44.9	44.9	44.9	61	32.3	0	0	---	0.00	30.005 
02:40	44.8	44.8	44.8	61	32.2	0	0	---	0.00	30.005 
02:45	44.8	44.8	44.8	61	32.2	0	1	292	0.00	30.005 
02:50	44.6	44.6	44.6	61	32.0	0	0	---	0.00	30.005 
02:55	44.6	44.6	44.6	61	32.0	0	0	---	0.00	30.005 
03:00	44.6	44.6	44.6	61	32.0	0	1	292	0.00	30.005 
03:05	44.5	44.5	44.5	61	31.9	0	0	---	0.00	30.005 
03:10	44.5	44.5	44.5	62	32.3	0	1	292	0.00	30.005 
03:15	44.3	44.3	44.3	62	32.1	0	1	292	0.00	30.003 
03:20	44.3	44.3	44.3	62	32.1	0	1	292	0.00	30.003 
03:25	44.3	44.3	44.3	62	32.1	0	1	292	0.00	30.003 
03:30	44.3	44.3	44.3	62	32.1	0	1	292	0.00	30.000 
03:35	44.3	44.3	44.3	61	31.7	0	1	292	0.00	30.000 
03:40	44.3	44.3	44.3	62	32.1	0	1	292	0.00	30.000 
03:45	44.3	44.3	44.3	62	32.1	0	1	292	0.00	29.999 
03:50	44.3	44.3	44.3	62	32.1	0	0	---	0.00	29.999 
03:55	44.3	44.3	44.3	62	32.1	0	0	---	0.00	29.999 
04:00	44.2	44.2	44.2	62	32.0	0	0	---	0.00	30.001 
04:05	44.1	44.1	44.1	62	31.9	0	0	---	0.00	30.001 
04:10	43.9	43.9	43.9	63	32.1	0	0	---	0.00	30.001 
04:15	43.6	43.6	43.6	63	31.8	0	0	---	0.00	30.002 
04:20	43.3	43.3	43.3	64	32.0	0	0	---	0.00	30.002 
04:25	43.1	43.1	43.1	65	32.1	0	0	---	0.00	30.002 
04:30	42.9	42.9	42.9	65	32.0	0	0	---	0.00	30.007 
04:35	42.6	42.6	42.6	66	32.0	0	1	292	0.00	30.007 
04:40	42.6	42.6	42.6	66	32.0	0	1	292	0.00	30.007 
04:45	42.8	42.8	42.8	66	32.2	0	1	292	0.00	30.014 
04:50	42.9	42.9	42.9	65	32.0	0	1	292	0.00	30.014 
04:55	43.1	43.1	43.1	65	32.1	0	1	292	0.00	30.014 
05:00	43.2	43.2	43.2	65	32.2	0	1	292	0.00	30.013 
05:05	43.1	43.1	43.1	65	32.1	0	2	292	0.00	30.013 
05:10	43.1	43.1	43.1	65	32.1	0	2	292	0.00	30.013 
05:15	43.1	43.1	43.1	65	32.1	0	1	292	0.00	30.017 
05:20	42.9	42.9	42.9	65	32.0	0	1	292	0.00	30.017 
05:25	42.9	42.9	42.9	66	32.3	0	1	292	0.00	30.017 
05:30	42.8	42.8	42.8	66	32.2	0	1	292	0.00	30.019 
05:35	42.8	42.8	42.8	66	32.2	0	1	292	0.00	30.019 
05:40	42.8	42.8	42.8	67	32.6	0	2	292	0.00	30.019 
05:45	42.9	42.9	42.9	67	32.7	0	1	292	0.00	30.022 
05:50	43.1	43.1	43.1	67	32.9	0	1	292	0.00	30.022 
05:55	43.1	43.1	43.1	67	32.9	0	1	292	0.00	30.022 
06:00	43.2	43.2	43.2	67	33.0	0	2	292	0.00	30.026 
06:05	43.1	43.1	43.1	67	32.9	0	2	292	0.00	30.026 
06:10	43.1	43.1	43.1	67	32.9	0	1	292	0.00	30.026 
06:15	42.9	42.9	42.9	68	33.1	0	1	292	0.00	30.031 
06:20	42.9	42.9	42.9	69	33.4	0	1	292	0.00	30.031 
06:25	42.8	42.8	42.8	69	33.3	0	1	292	0.00	30.031 
06:30	42.8	42.8	42.8	69	33.3	0	1	292	0.00	30.040 
06:35	42.6	42.6	42.6	70	33.5	0	2	292	0.00	30.040 
06:40	42.6	42.6	42.6	70	33.5	0	1	292	0.00	30.040 
06:45	42.5	42.5	42.5	71	33.8	0	1	292	0.00	30.042 
06:50	42.5	42.5	42.5	71	33.8	0	1	292	0.00	30.042 
06:55	42.5	42.5	42.5	72	34.1	0	1	292	0.00	30.042 
07:00	42.6	42.6	42.6	72	34.2	0	1	292	0.00	30.049 
07:05	42.8	42.8	42.8	73	34.8	0	1	292	0.00	30.049 
07:10	42.9	42.9	42.9	73	34.9	0	1	292	0.00	30.049 
07:15	43.1	43.1	43.1	73	35.0	0	1	292	0.00	30.059 
07:20	43.3	43.3	43.3	73	35.2	0	1	292	0.00	30.059 
07:25	43.5	43.5	43.5	73	35.4	0	1	292	0.00	30.059 
07:30	43.8	43.8	43.8	73	35.7	0	1	292	0.00	30.064 
07:35	44.1	44.1	44.1	73	36.0	0	1	292	0.00	30.064 
07:40	44.5	44.5	44.5	73	36.4	0	1	292	0.00	30.064 
07:45	45.1	45.1	45.1	73	37.0	0	2	292	0.00	30.069 
07:50	45.7	45.7	45.7	72	37.2	0	2	292	0.00	30.069 
07:55	46.2	46.2	46.2	71	37.3	0	1	292	0.00	30.069 
08:00	47.0	47.0	47.0	70	37.7	0	2	292	0.00	30.070 
08:05	47.7	47.7	47.7	69	38.0	0	2	292	0.00	30.070 
08:10	48.3	48.3	48.3	68	38.2	0	2	292	0.00	30.070 
08:15	48.9	48.9	48.9	67	38.4	1	3	292	0.00	30.070 
08:20	49.5	49.5	49.5	66	38.6	0	2	292	0.00	30.070 
08:25	49.9	49.9	49.9	65	38.6	0	2	292	0.00	30.070 
08:30	50.5	50.5	50.5	64	38.8	1	3	292	0.00	30.069 
08:35	51.1	51.1	51.1	64	39.4	1	2	292	0.00	30.069 
08:40	51.7	51.7	51.7	63	39.5	0	2	292	0.00	30.069 
08:45	52.3	52.3	52.3	62	39.7	0	2	292	0.00	30.070 
08:50	53.1	53.1	53.1	62	40.4	1	2	292	0.00	30.070 
08:55	53.6	53.6	53.6	61	40.5	0	1	292	0.00	30.070 
09:00	54.2	54.2	54.2	61	41.0	0	2	292	0.00	30.068 
09:05	54.8	54.8	54.8	58	40.3	1	3	292	0.00	30.068 
09:10	55.4	55.4	55.4	58	40.9	0	2	292	0.00	30.068 
09:15	56.0	56.0	56.0	57	41.0	1	3	292	0.00	30.063 
09:20	56.6	56.6	56.6	56	41.1	0	2	292	0.00	30.063 
09:25	57.2	57.2	57.2	57	42.1	0	2	292	0.00	30.063 
09:30	57.6	57.6	57.6	54	41.1	1	3	292	0.00	30.062 
09:35	58.1	58.1	58.1	55	42.0	1	3	292	0.00	30.062 
09:40	58.6	58.6	58.6	53	41.5	1	4	292	0.00	30.062 
09:45	58.9	58.9	58.9	52	41.3	1	2	292	0.00	30.066 
09:50	59.3	59.3	59.3	52	41.7	0	2	292	0.00	30.066 
09:55	59.8	59.8	59.8	52	42.1	1	2	292	0.00	30.066 
10:00	60.2	60.2	60.2	53	43.0	0	3	292	0.00	30.068 
10:05	61.0	61.0	61.0	49	41.7	1	4	0	0.00	30.068 
10:10	61.3	61.3	61.3	49	42.0	0	3	0	0.00	30.068 
10:15	61.8	61.8	61.8	50	43.0	0	2	0	0.00	30.067 
10:20	61.8	61.8	61.8	48	41.9	1	4	292	0.00	30.067 
10:25	62.0	62.0	62.0	48	42.1	1	3	292	0.00	30.067 
10:30	62.1	62.1	62.1	47	41.6	1	3	292	0.00	30.066 
10:35	62.3	62.3	62.3	48	42.4	1	3	292	0.00	30.066 
10:40	62.7	62.7	62.7	50	43.8	0	3	292	0.00	30.066 
10:45	63.1	63.1	63.1	47	42.5	1	3	315	0.00	30.071 
10:50	63.2	63.2	63.2	46	42.1	1	3	315	0.00	30.071 
10:55	63.4	63.4	63.4	45	41.7	1	4	315	0.00	30.071 
11:00	63.7	63.7	63.7	45	42.0	1	4	338	0.00	30.068 
11:05	64.3	64.3	64.3	45	42.5	0	3	338	0.00	30.068 
11:10	64.5	64.5	64.5	44	42.1	1	4	315	0.00	30.068 
11:15	64.8	64.8	64.8	46	43.5	0	2	315	0.00	30.071 
11:20	65.5	65.5	65.5	46	44.2	0	2	112	0.00	30.071 
11:25	65.8	65.8	65.8	42	42.1	1	5	112	0.00	30.071 
11:30	65.8	65.8	65.8	44	43.3	1	4	248	0.00	30.070 
11:35	66.0	66.0	66.0	41	41.6	1	4	292	0.00	30.070 
11:40	66.1	66.1	66.1	42	42.3	1	4	292	0.00	30.070 
11:45	66.3	66.3	66.3	41	41.9	1	5	315	0.00	30.071 
11:50	66.6	66.6	66.6	42	42.8	1	4	45	0.00	30.071 
11:55	67.1	67.1	67.1	40	42.0	1	4	90	0.00	30.071 
12:00	67.6	67.6	67.6	40	42.4	1	5	90	0.00	30.068 
12:05	67.6	67.6	67.6	39	41.8	2	4	292	0.00	30.068 
12:10	67.4	67.4	67.4	40	42.2	1	4	292	0.00	30.068 
12:15	67.9	67.9	67.9	41	43.3	0	3	292	0.00	30.070 
12:20	68.3	68.3	68.3	40	43.0	1	4	248	0.00	30.070 
12:25	68.4	68.4	68.4	42	44.4	1	4	248	0.00	30.070 
12:30	68.9	68.9	68.9	39	42.9	1	4	68	0.00	30.066 
12:35	68.8	68.8	68.8	37	41.5	1	4	0	0.00	30.066 
12:40	68.9	68.9	68.9	40	43.6	0	2	315	0.00	30.066 
12:45	68.8	68.8	68.8	40	43.5	1	5	0	0.00	30.061 
12:50	68.8	68.8	68.8	38	42.1	1	4	0	0.00	30.061 
12:55	68.8	68.8	68.8	36	40.7	1	3	338	0.00	30.061 
13:00	69.1	69.1	69.1	37	41.7	1	4	338	0.00	30.058 
13:05	69.8	69.8	69.8	35	40.9	1	7	45	0.00	30.058 
13:10	69.6	69.6	69.6	34	40.0	1	4	270	0.00	30.058 
13:15	69.6	69.6	69.6	35	40.7	0	1	315	0.00	30.062 
13:20	70.3	70.3	70.3	35	41.3	1	3	315	0.00	30.062 
13:25	70.1	70.1	70.1	35	41.2	1	4	270	0.00	30.062 
13:30	70.1	70.1	70.1	36	41.9	1	3	270	0.00	30.061 
13:35	70.1	70.1	70.1	31	38.1	1	5	0	0.00	30.061 
13:40	70.4	70.4	70.4	33	39.9	0	3	68	0.00	30.061 
13:45	70.6	70.6	70.6	31	38.5	1	6	315	0.00	30.058 
13:50	70.6	70.6	70.6	31	38.5	0	3	315	0.00	30.058 
13:55	70.8	70.8	70.8	32	39.5	1	3	22	0.00	30.058 
14:00	71.3	71.3	71.3	31	39.1	2	6	112	0.00	30.055 
14:05	71.6	71.6	71.6	33	41.0	1	5	68	0.00	30.055 
14:10	71.8	71.8	71.8	31	39.5	0	3	22	0.00	30.055 
14:15	71.3	71.3	71.3	29	37.4	1	5	292	0.00	30.055 
14:20	70.8	70.8	70.8	31	38.7	1	3	292	0.00	30.055 
14:25	71.3	71.3	71.3	31	39.1	1	4	45	0.00	30.055 
14:30	71.8	71.8	71.8	29	37.8	0	3	90	0.00	30.055 
14:35	71.8	71.8	71.8	27	36.0	1	3	0	0.00	30.055 
14:40	71.8	71.8	71.8	28	36.9	1	7	292	0.00	30.055 
14:45	71.8	71.8	71.8	28	36.9	1	3	0	0.00	30.050 
14:50	71.3	71.3	71.3	29	37.4	1	6	0	0.00	30.050 
14:55	71.6	71.6	71.6	34	41.7	1	5	292	0.00	30.050 
15:00	71.6	71.6	71.6	30	38.5	1	4	292	0.00	30.046 
15:05	71.8	71.8	71.8	30	38.7	1	5	135	0.00	30.046 
15:10	72.1	72.1	72.1	31	39.8	1	4	90	0.00	30.046 
15:15	72.5	72.5	72.5	31	40.1	0	4	90	0.00	30.042 
15:20	72.8	72.8	72.8	32	41.2	1	3	90	0.00	30.042 
15:25	72.5	72.5	72.5	28	37.5	0	3	90	0.00	30.042 
15:30	71.8	71.8	71.8	28	36.9	1	2	292	0.00	30.041 
15:35	71.8	71.8	71.8	29	37.8	1	5	292	0.00	30.041 
15:40	72.1	72.1	72.1	27	36.3	1	3	292	0.00	30.041 
15:45	72.0	72.0	72.0	28	37.1	0	3	292	0.00	30.038 
15:50	71.6	71.6	71.6	27	35.8	0	3	292	0.00	30.038 
15:55	71.6	71.6	71.6	32	40.2	0	2	68	0.00	30.038 
16:00	72.1	72.1	72.1	26	35.3	1	4	270	0.00	30.033 
16:05	72.5	72.5	72.5	28	37.5	0	2	292	0.00	30.033 
16:10	72.8	72.8	72.8	26	35.9	0	3	292	0.00	30.033 
16:15	72.3	72.3	72.3	28	37.4	1	6	68	0.00	30.027 
16:20	71.6	71.6	71.6	28	36.8	0	2	68	0.00	30.027 
16:25	71.3	71.3	71.3	30	38.3	0	2	45	0.00	30.027 
16:30	71.8	71.8	71.8	27	36.0	1	3	270	0.00	30.026 
16:35	72.3	72.3	72.3	27	36.4	0	1	270	0.00	30.026 
16:40	72.7	72.7	72.7	26	35.8	0	2	270	0.00	30.026 
16:45	73.2	73.2	73.2	26	36.2	0	3	270	0.00	30.023 
16:50	72.8	72.8	72.8	25	34.9	1	3	270	0.00	30.023 
16:55	72.3	72.3	72.3	28	37.4	0	3	270	0.00	30.023 
17:00	71.8	71.8	71.8	31	39.5	0	2	270	0.00	30.019 
17:05	71.5	71.5	71.5	27	35.8	0	2	270	0.00	30.019 
17:10	71.1	71.1	71.1	28	36.3	0	1	270	0.00	30.019 
17:15	70.6	70.6	70.6	27	35.0	0	1	270	0.00	30.018 
17:20	70.1	70.1	70.1	28	35.5	0	1	270	0.00	30.018 
17:25	69.9	69.9	69.9	27	34.4	0	1	270	0.00	30.018 
17:30	69.8	69.8	69.8	28	35.2	0	0	---	0.00	30.018 
17:35	70.4	70.4	70.4	29	36.6	0	0	---	0.00	30.018 
17:40	71.1	71.1	71.1	28	36.3	0	1	270	0.00	30.018 
17:45	71.3	71.3	71.3	28	36.5	1	3	270	0.00	30.014 
17:50	71.1	71.1	71.1	27	35.4	0	2	22	0.00	30.014 
17:55	71.1	71.1	71.1	28	36.3	0	1	22	0.00	30.014 
18:00	71.1	71.1	71.1	29	37.2	0	1	22	0.00	30.012 
18:05	71.1	71.1	71.1	30	38.1	0	1	22	0.00	30.012 
18:10	71.5	71.5	71.5	29	37.6	0	3	68	0.00	30.012 
18:15	72.0	72.0	72.0	28	37.1	0	1	68	0.00	30.013 
18:20	72.0	72.0	72.0	28	37.1	0	2	68	0.00	30.013 
18:25	72.0	72.0	72.0	27	36.2	0	1	68	0.00	30.013 
18:30	71.8	71.8	71.8	27	36.0	1	5	270	0.00	30.015 
18:35	71.6	71.6	71.6	28	36.8	0	1	270	0.00	30.015 
18:40	71.1	71.1	71.1	31	38.9	0	2	270	0.00	30.015 
18:45	71.1	71.1	71.1	32	39.7	0	1	270	0.00	30.018 
18:50	71.1	71.1	71.1	28	36.3	0	1	270	0.00	30.018 
18:55	70.9	70.9	70.9	29	37.0	0	2	270	0.00	30.018 
19:00	70.8	70.8	70.8	31	38.7	0	2	270	0.00	30.016 
19:05	70.4	70.4	70.4	30	37.5	0	2	270	0.00	30.016 
19:10	70.3	70.3	70.3	31	38.2	0	1	270	0.00	30.016 
19:15	70.3	70.3	70.3	30	37.4	1	3	270	0.00	30.018 
19:20	70.3	70.3	70.3	32	39.0	0	2	270	0.00	30.018 
19:25	70.1	70.1	70.1	32	38.9	0	1	270	0.00	30.018 
19:30	70.1	70.1	70.1	31	38.1	0	1	270	0.00	30.019 
19:35	69.9	69.9	69.9	32	38.7	0	1	270	0.00	30.019 
19:40	69.6	69.6	69.6	32	38.4	0	1	270	0.00	30.019 
19:45	69.4	69.4	69.4	32	38.3	0	1	270	0.00	30.020 
19:50	69.3	69.3	69.3	32	38.2	0	1	270	0.00	30.020 
19:55	69.3	69.3	69.3	31	37.4	0	1	270	0.00	30.020 
20:00	69.3	69.3	69.3	31	37.4	0	2	270	0.00	30.022 
20:05	69.1	69.1	69.1	32	38.0	0	2	270	0.00	30.022 
20:10	68.9	68.9	68.9	32	37.8	0	2	270	0.00	30.022 
20:15	68.6	68.6	68.6	33	38.3	0	1	270	0.00	30.019 
20:20	68.3	68.3	68.3	34	38.8	0	1	270	0.00	30.019 
20:25	67.9	67.9	67.9	34	38.5	0	0	---	0.00	30.019 
20:30	67.6	67.6	67.6	34	38.2	0	0	---	0.00	30.020 
20:35	67.4	67.4	67.4	35	38.8	0	1	270	0.00	30.020 
20:40	67.1	67.1	67.1	35	38.5	0	1	270	0.00	30.020 
20:45	66.8	66.8	66.8	35	38.3	0	0	---	0.00	30.022 
20:50	66.4	66.4	66.4	36	38.6	0	1	270	0.00	30.022 
20:55	66.3	66.3	66.3	36	38.5	0	1	270	0.00	30.022 
21:00	66.0	66.0	66.0	37	39.0	0	3	270	0.00	30.025 
21:05	65.8	65.8	65.8	37	38.8	0	2	270	0.00	30.025 
21:10	65.5	65.5	65.5	38	39.2	0	3	270	0.00	30.025 
21:15	65.2	65.2	65.2	38	38.9	1	3	270	0.00	30.029 
21:20	65.0	65.0	65.0	39	39.4	0	2	270	0.00	30.029 
21:25	64.7	64.7	64.7	39	39.2	1	3	270	0.00	30.029 
21:30	64.2	64.2	64.2	39	38.7	0	4	292	0.00	30.034 
21:35	63.9	63.9	63.9	39	38.5	1	4	315	0.00	30.034 
21:40	63.7	63.7	63.7	40	38.9	2	5	338	0.00	30.034 
21:45	63.4	63.4	63.4	40	38.7	1	2	338	0.00	30.043 
21:50	62.9	62.9	62.9	41	38.8	1	3	315	0.00	30.043 
21:55	62.6	62.6	62.6	41	38.6	0	2	315	0.00	30.043 
22:00	62.1	62.1	62.1	42	38.7	1	3	315	0.00	30.048 
22:05	62.0	62.0	62.0	42	38.6	0	2	315	0.00	30.048 
22:10	61.6	61.6	61.6	43	38.9	0	3	315	0.00	30.048 
22:15	61.3	61.3	61.3	43	38.6	0	3	315	0.00	30.048 
22:20	61.3	61.3	61.3	43	38.6	1	4	315	0.00	30.048 
22:25	61.0	61.0	61.0	43	38.3	0	2	315	0.00	30.048 
22:30	60.7	60.7	60.7	44	38.7	0	2	315	0.00	30.051 
22:35	60.5	60.5	60.5	44	38.5	1	3	315	0.00	30.051 
22:40	60.2	60.2	60.2	44	38.2	0	2	315	0.00	30.051 
22:45	60.1	60.1	60.1	45	38.7	0	3	315	0.00	30.052 
22:50	59.9	59.9	59.9	45	38.5	1	4	315	0.00	30.052 
22:55	59.8	59.8	59.8	45	38.4	1	4	315	0.00	30.052 
23:00	59.6	59.6	59.6	46	38.8	0	2	315	0.00	30.057 
23:05	59.3	59.3	59.3	46	38.5	0	2	315	0.00	30.057 
23:10	59.2	59.2	59.2	47	39.0	0	3	315	0.00	30.057 
23:15	58.9	58.9	58.9	48	39.2	0	1	315	0.00	30.056 
23:20	58.6	58.6	58.6	48	39.0	0	1	315	0.00	30.056 
23:25	58.4	58.4	58.4	48	38.8	0	2	315	0.00	30.056 
23:30	58.3	58.3	58.3	48	38.7	0	2	315	0.00	30.055 
23:35	58.3	58.3	58.3	48	38.7	0	2	315	0.00	30.055 
23:40	58.1	58.1	58.1	48	38.5	1	4	315	0.00	30.055 
23:45	58.1	58.1	58.1	48	38.5	0	2	315	0.00	30.056 
23:50	58.0	58.0	58.0	48	38.4	0	1	315	0.00	30.056 
23:55	57.8	57.8	57.8	48	38.2	0	1	315	0.00	30.056 

CoCoRaHS
IN-AL-39
A2 Web Hosting
Creative Commons License
GoDaddy
search engine by freefind advanced

loaded 2018-11-19 19:12:02 • last modified 2010-11-18 10:43:29
Privacy PolicyDisclaimer
• wx.awcolley.com is powered by PmWiki v.2002016 •
• all content (unless otherwise noted) © 2018 A W Colley